Time;durP1;ratioP1;P1;durP2;ratioP2;P2;SDS_P1;SDS_P2;PMS_P1;PMS_P2;Temp;Humidity;BMP_temperature;BMP_pressure;BME280_temperature;BME280_humidity;BME280_pressure;Samples;Min_cycle;Max_cycle;Signal;HPM_P1;HPM_P2
2022/10/13 00:00:48;;;;;;;25.90;18.43;;;10.20;99.90;;;;;;5018268;28;20469;-67
2022/10/13 00:03:16;;;;;;;23.30;16.87;;;10.20;99.90;;;;;;5019895;28;21913;-68
2022/10/13 00:05:45;;;;;;;26.43;18.03;;;10.20;99.90;;;;;;5015672;28;20467;-69
2022/10/13 00:08:15;;;;;;;18.03;16.13;;;10.20;99.90;;;;;;5017254;28;20472;-68
2022/10/13 00:10:42;;;;;;;24.37;18.47;;;10.20;99.90;;;;;;5020325;28;20464;-67
2022/10/13 00:13:09;;;;;;;18.27;16.57;;;10.20;99.90;;;;;;5017168;28;21161;-68
2022/10/13 00:15:39;;;;;;;21.53;16.40;;;10.20;99.90;;;;;;5014622;28;20456;-69
2022/10/13 00:18:06;;;;;;;17.13;15.57;;;10.20;99.90;;;;;;5019583;28;21171;-68
2022/10/13 00:20:33;;;;;;;21.50;17.30;;;10.10;99.90;;;;;;5019483;28;20484;-69
2022/10/13 00:23:00;;;;;;;30.90;16.53;;;10.20;99.90;;;;;;5021084;28;20464;-68
2022/10/13 00:25:28;;;;;;;24.43;17.37;;;10.30;99.90;;;;;;5020269;28;20467;-70
2022/10/13 00:27:55;;;;;;;17.30;15.43;;;10.40;99.90;;;;;;5019257;28;20493;-67
2022/10/13 00:30:23;;;;;;;20.77;17.20;;;10.40;99.90;;;;;;5014040;28;20913;-69
2022/10/13 00:32:49;;;;;;;23.63;16.40;;;10.40;99.90;;;;;;5016568;28;20464;-67
2022/10/13 00:35:16;;;;;;;18.10;15.90;;;10.40;99.90;;;;;;5023127;28;20452;-68
2022/10/13 00:37:43;;;;;;;18.73;15.20;;;10.40;99.90;;;;;;5022865;28;20540;-70
2022/10/13 00:40:12;;;;;;;19.80;16.63;;;10.50;99.90;;;;;;5018654;28;21142;-69
2022/10/13 00:42:42;;;;;;;16.63;13.97;;;10.50;99.90;;;;;;5015271;28;20918;-68
2022/10/13 00:45:22;;;;;;;17.93;16.03;;;10.60;99.90;;;;;;5023039;28;20473;-68
2022/10/13 00:47:54;;;;;;;17.63;15.30;;;10.60;99.90;;;;;;5022303;28;20465;-67
2022/10/13 00:50:24;;;;;;;18.90;14.67;;;10.60;99.90;;;;;;5017145;28;20453;-68
2022/10/13 00:52:54;;;;;;;19.70;15.00;;;10.60;99.90;;;;;;5023147;28;20507;-68
2022/10/13 00:55:23;;;;;;;15.90;14.10;;;10.60;99.90;;;;;;5019581;28;20563;-68
2022/10/13 00:57:54;;;;;;;20.67;14.47;;;10.60;99.90;;;;;;5017794;28;20460;-70
2022/10/13 01:00:23;;;;;;;24.80;14.90;;;10.60;99.90;;;;;;5021495;28;20480;-69
2022/10/13 01:02:50;;;;;;;23.47;14.50;;;10.70;99.90;;;;;;5019975;28;20483;-68
2022/10/13 01:05:19;;;;;;;19.63;14.90;;;10.70;99.90;;;;;;5019044;28;20464;-69
2022/10/13 01:07:49;;;;;;;15.87;14.17;;;10.70;99.90;;;;;;5022001;28;20535;-68
2022/10/13 01:10:23;;;;;;;24.10;14.63;;;10.70;99.90;;;;;;5021078;28;20468;-68
2022/10/13 01:13:00;;;;;;;27.40;14.77;;;10.80;99.90;;;;;;5019445;28;21265;-68
2022/10/13 01:15:32;;;;;;;22.43;14.23;;;10.80;99.90;;;;;;5020732;28;20500;-69
2022/10/13 01:18:07;;;;;;;23.37;14.67;;;10.80;99.90;;;;;;5022038;28;20474;-69
2022/10/13 01:20:50;;;;;;;22.80;14.10;;;10.90;99.90;;;;;;5019231;28;21189;-68
2022/10/13 01:23:48;;;;;;;19.20;14.10;;;11.00;99.90;;;;;;5021234;28;21003;-68
2022/10/13 01:26:42;;;;;;;29.43;15.30;;;11.00;99.90;;;;;;5023342;28;20473;-67
2022/10/13 01:29:32;;;;;;;26.50;13.70;;;11.00;99.90;;;;;;5022468;28;20888;-68
2022/10/13 01:32:04;;;;;;;22.17;13.93;;;11.10;99.90;;;;;;5022929;28;20492;-68
2022/10/13 01:34:36;;;;;;;17.50;12.77;;;11.00;99.90;;;;;;5021861;28;20852;-67
2022/10/13 01:37:10;;;;;;;19.40;14.77;;;11.00;99.90;;;;;;5015439;28;20464;-68
2022/10/13 01:39:42;;;;;;;18.10;13.40;;;11.00;99.90;;;;;;5015025;28;20955;-68
2022/10/13 01:42:15;;;;;;;17.73;14.07;;;11.10;99.90;;;;;;5020393;28;20465;-68
2022/10/13 01:44:48;;;;;;;25.60;15.20;;;11.10;99.90;;;;;;5022062;28;20472;-68
2022/10/13 01:47:18;;;;;;;17.03;14.60;;;11.00;99.90;;;;;;5022579;28;20472;-68
2022/10/13 01:49:46;;;;;;;18.90;13.23;;;11.00;99.90;;;;;;5023166;28;20467;-68
2022/10/13 01:52:17;;;;;;;27.43;14.50;;;11.00;99.90;;;;;;5021626;28;20476;-68
2022/10/13 01:54:48;;;;;;;21.80;15.40;;;11.00;99.90;;;;;;5023878;28;20500;-68
2022/10/13 01:57:31;;;;;;;19.60;14.50;;;11.00;99.90;;;;;;5025180;28;20831;-68
2022/10/13 01:59:59;;;;;;;21.10;16.20;;;11.00;99.90;;;;;;5022878;28;20464;-68
2022/10/13 02:02:32;;;;;;;25.83;15.13;;;11.00;99.90;;;;;;5020853;28;20990;-68
2022/10/13 02:05:09;;;;;;;20.20;15.50;;;11.00;99.90;;;;;;5022749;28;20487;-67
2022/10/13 02:07:44;;;;;;;23.47;15.30;;;11.00;99.90;;;;;;5021649;28;20468;-68
2022/10/13 02:10:18;;;;;;;23.60;14.70;;;11.00;99.90;;;;;;5023707;28;20471;-68
2022/10/13 02:12:50;;;;;;;31.80;15.47;;;10.90;99.90;;;;;;5018108;28;20469;-69
2022/10/13 02:15:21;;;;;;;19.33;14.13;;;10.90;99.90;;;;;;5020770;28;20549;-68
2022/10/13 02:17:51;;;;;;;27.07;16.67;;;10.90;99.90;;;;;;5020574;28;20458;-69
2022/10/13 02:20:20;;;;;;;25.27;15.80;;;11.00;99.90;;;;;;5023621;28;20520;-68
2022/10/13 02:22:52;;;;;;;23.00;16.00;;;11.00;99.90;;;;;;5023938;28;20471;-68
2022/10/13 02:25:18;;;;;;;31.20;16.47;;;11.00;99.90;;;;;;5019710;28;20469;-69
2022/10/13 02:27:45;;;;;;;18.90;15.57;;;11.00;99.90;;;;;;5018843;28;20492;-68
2022/10/13 02:30:21;;;;;;;20.00;15.60;;;11.00;99.90;;;;;;5018109;28;20476;-69
2022/10/13 02:32:49;;;;;;;21.93;16.90;;;11.10;99.90;;;;;;5018039;28;20476;-68
2022/10/13 02:35:17;;;;;;;20.40;15.33;;;11.10;99.90;;;;;;5018898;28;20847;-68
2022/10/13 02:37:44;;;;;;;23.50;16.03;;;11.10;99.90;;;;;;5021356;28;20496;-68
2022/10/13 02:40:13;;;;;;;18.80;15.60;;;11.20;99.90;;;;;;5021143;28;20915;-69
2022/10/13 02:42:40;;;;;;;27.80;15.90;;;11.20;99.90;;;;;;5022985;28;20500;-68
2022/10/13 02:45:08;;;;;;;21.70;15.70;;;11.20;99.90;;;;;;5018572;28;20475;-67
2022/10/13 02:47:35;;;;;;;20.83;16.47;;;11.20;99.90;;;;;;5023049;28;20677;-67
2022/10/13 02:50:05;;;;;;;21.50;17.20;;;11.10;99.90;;;;;;5019782;28;20465;-68
2022/10/13 02:52:33;;;;;;;23.53;15.50;;;11.10;99.90;;;;;;5024081;28;20808;-68
2022/10/13 02:55:01;;;;;;;17.30;15.50;;;11.10;99.90;;;;;;5021276;28;20984;-69
2022/10/13 02:57:28;;;;;;;20.37;16.27;;;11.10;99.90;;;;;;5024263;28;20471;-68
2022/10/13 02:59:55;;;;;;;27.97;17.13;;;11.10;99.90;;;;;;5016418;28;20472;-69
2022/10/13 03:02:22;;;;;;;25.53;16.37;;;11.10;99.90;;;;;;5030289;28;20455;-69
2022/10/13 03:04:49;;;;;;;18.73;16.07;;;11.10;99.90;;;;;;5020916;28;20472;-68
2022/10/13 03:07:19;;;;;;;22.27;16.57;;;11.10;99.90;;;;;;5022522;28;20522;-68
2022/10/13 03:09:47;;;;;;;19.20;15.40;;;11.10;99.90;;;;;;5021948;28;20558;-69
2022/10/13 03:12:13;;;;;;;29.10;16.70;;;11.10;99.90;;;;;;5023654;28;20473;-68
2022/10/13 03:14:40;;;;;;;32.70;16.83;;;11.10;99.90;;;;;;5015664;28;20489;-69
2022/10/13 03:17:07;;;;;;;30.87;17.20;;;11.10;99.90;;;;;;5019927;28;20464;-68
2022/10/13 03:19:35;;;;;;;19.80;16.93;;;11.20;99.90;;;;;;5019691;28;20461;-68
2022/10/13 03:22:02;;;;;;;37.27;16.27;;;11.10;99.90;;;;;;5022642;28;20485;-68
2022/10/13 03:24:31;;;;;;;23.23;16.27;;;11.10;99.90;;;;;;5020362;28;20469;-69
2022/10/13 03:26:58;;;;;;;19.80;15.63;;;11.10;99.90;;;;;;5021680;28;20480;-67
2022/10/13 03:29:25;;;;;;;38.73;18.37;;;11.10;99.90;;;;;;5022755;28;20500;-68
2022/10/13 03:31:51;;;;;;;47.70;17.87;;;11.10;99.90;;;;;;5021731;28;20469;-70
2022/10/13 03:34:19;;;;;;;32.97;18.20;;;11.10;99.90;;;;;;5021008;28;20492;-70
2022/10/13 03:36:46;;;;;;;43.20;18.53;;;11.10;99.90;;;;;;5021863;28;20476;-67
2022/10/13 03:39:13;;;;;;;22.23;16.33;;;11.20;99.90;;;;;;5022607;28;20465;-69
2022/10/13 03:41:41;;;;;;;27.70;16.67;;;11.20;99.90;;;;;;5019310;28;20475;-68
2022/10/13 03:44:11;;;;;;;36.03;17.20;;;11.20;99.90;;;;;;5018577;28;20612;-68
2022/10/13 03:46:37;;;;;;;25.30;17.50;;;11.20;99.90;;;;;;5015595;28;20462;-68
2022/10/13 03:49:04;;;;;;;27.03;16.07;;;11.30;99.90;;;;;;5019447;28;20475;-68
2022/10/13 03:51:31;;;;;;;25.37;16.53;;;11.30;99.90;;;;;;5020308;28;20483;-68
2022/10/13 03:53:58;;;;;;;18.07;16.07;;;11.30;99.90;;;;;;5016044;28;20461;-68
2022/10/13 03:56:26;;;;;;;23.03;16.37;;;11.40;99.90;;;;;;5017896;28;20997;-68
2022/10/13 03:58:57;;;;;;;27.07;17.07;;;11.40;99.90;;;;;;5017984;28;20465;-68
2022/10/13 04:01:26;;;;;;;23.90;16.73;;;11.40;99.90;;;;;;5014951;28;20492;-67
2022/10/13 04:03:55;;;;;;;22.47;17.37;;;11.40;99.90;;;;;;5012297;28;20471;-68
2022/10/13 04:06:23;;;;;;;22.80;18.77;;;11.40;99.90;;;;;;5016828;28;20475;-68
2022/10/13 04:08:50;;;;;;;20.00;16.23;;;11.40;99.90;;;;;;5016432;28;20994;-67
2022/10/13 04:11:18;;;;;;;62.57;18.27;;;11.30;99.90;;;;;;5024034;28;20935;-68
2022/10/13 04:13:45;;;;;;;19.47;17.47;;;11.40;99.90;;;;;;5019396;28;20460;-70
2022/10/13 04:16:15;;;;;;;21.80;17.47;;;11.30;99.90;;;;;;5019626;28;20575;-68
2022/10/13 04:18:42;;;;;;;19.20;17.47;;;11.30;99.90;;;;;;5019365;28;21033;-69
2022/10/13 04:21:11;;;;;;;26.93;16.77;;;11.40;99.90;;;;;;5014151;28;20524;-68
2022/10/13 04:23:38;;;;;;;25.53;17.03;;;11.50;99.90;;;;;;5022745;28;20483;-70
2022/10/13 04:26:06;;;;;;;20.93;18.13;;;11.40;99.90;;;;;;5020418;28;20564;-67
2022/10/13 04:28:34;;;;;;;24.90;17.43;;;11.40;99.90;;;;;;5018150;28;20491;-69
2022/10/13 04:31:01;;;;;;;22.87;17.77;;;11.30;99.90;;;;;;5020068;28;21549;-70
2022/10/13 04:33:29;;;;;;;25.77;18.53;;;11.30;99.90;;;;;;5020160;28;20984;-68
2022/10/13 04:35:57;;;;;;;22.83;16.40;;;11.30;99.90;;;;;;5024588;28;20575;-68
2022/10/13 04:38:24;;;;;;;20.60;17.00;;;11.40;99.90;;;;;;5024170;28;20469;-68
2022/10/13 04:40:51;;;;;;;24.10;17.13;;;11.40;99.90;;;;;;5022835;28;20954;-69
2022/10/13 04:43:18;;;;;;;24.70;17.57;;;11.40;99.90;;;;;;5019430;28;20446;-68
2022/10/13 04:45:45;;;;;;;23.97;17.30;;;11.40;99.90;;;;;;5019437;28;20461;-69
2022/10/13 04:48:11;;;;;;;22.87;16.83;;;11.40;99.90;;;;;;5011000;28;20830;-68
2022/10/13 04:50:40;;;;;;;17.50;15.80;;;11.40;99.90;;;;;;5019029;28;21078;-70
2022/10/13 04:53:08;;;;;;;27.60;17.60;;;11.50;99.90;;;;;;5020307;28;20464;-69
2022/10/13 04:55:35;;;;;;;20.80;15.80;;;11.50;99.90;;;;;;5022285;28;20484;-68
2022/10/13 04:58:02;;;;;;;17.53;15.73;;;11.50;99.90;;;;;;5020786;28;20556;-68
2022/10/13 05:00:29;;;;;;;22.73;15.00;;;11.60;99.90;;;;;;5020213;28;20468;-69
2022/10/13 05:02:56;;;;;;;15.93;14.40;;;11.60;99.90;;;;;;5019820;28;20552;-69
2022/10/13 05:05:23;;;;;;;18.10;15.30;;;11.80;99.90;;;;;;5021261;28;20523;-70
2022/10/13 05:07:51;;;;;;;18.07;16.23;;;11.90;99.90;;;;;;5020614;28;21157;-68
2022/10/13 05:10:19;;;;;;;17.87;16.00;;;11.90;99.90;;;;;;5020049;28;20456;-68
2022/10/13 05:12:45;;;;;;;17.27;14.70;;;11.90;99.90;;;;;;5020285;28;20563;-69
2022/10/13 05:15:12;;;;;;;15.97;14.10;;;11.90;99.90;;;;;;5020838;28;20993;-69
2022/10/13 05:17:39;;;;;;;20.03;17.30;;;11.90;99.90;;;;;;5016938;28;20480;-69
2022/10/13 05:20:06;;;;;;;15.37;13.83;;;12.00;99.90;;;;;;5022218;28;20460;-68
2022/10/13 05:22:33;;;;;;;16.13;14.33;;;12.00;99.90;;;;;;5021507;28;21003;-68
2022/10/13 05:25:02;;;;;;;16.17;14.67;;;12.00;99.90;;;;;;5017227;28;20461;-69
2022/10/13 05:27:29;;;;;;;19.43;15.37;;;11.90;99.90;;;;;;5012430;28;20492;-69
2022/10/13 05:29:56;;;;;;;18.57;16.70;;;11.80;99.90;;;;;;5022006;28;20470;-68
2022/10/13 05:32:23;;;;;;;19.50;17.43;;;11.80;99.90;;;;;;5021869;28;20468;-68
2022/10/13 05:34:50;;;;;;;21.70;17.27;;;11.70;99.90;;;;;;5016446;28;20488;-68
2022/10/13 05:37:17;;;;;;;18.90;17.00;;;11.60;99.90;;;;;;5019710;28;20874;-68
2022/10/13 05:39:43;;;;;;;21.83;17.90;;;11.60;99.90;;;;;;5019786;28;21005;-69
2022/10/13 05:42:11;;;;;;;18.60;17.00;;;11.60;99.90;;;;;;5021119;28;20539;-69
2022/10/13 05:44:38;;;;;;;19.67;17.43;;;11.60;99.90;;;;;;5019258;28;20480;-68
2022/10/13 05:47:05;;;;;;;20.17;16.90;;;11.50;99.90;;;;;;5018873;28;20461;-69
2022/10/13 05:49:35;;;;;;;18.87;16.97;;;11.50;99.90;;;;;;5020555;28;20570;-68
2022/10/13 05:52:03;;;;;;;22.20;17.70;;;11.50;99.90;;;;;;5018570;28;21021;-68
2022/10/13 05:54:34;;;;;;;28.53;18.30;;;11.50;99.90;;;;;;5017049;28;21176;-69
2022/10/13 05:57:04;;;;;;;24.83;18.23;;;11.50;99.90;;;;;;5021825;28;20779;-68
2022/10/13 05:59:36;;;;;;;30.30;17.57;;;11.50;99.90;;;;;;5025142;28;20495;-70
2022/10/13 06:02:08;;;;;;;27.97;17.57;;;11.40;99.90;;;;;;5020249;28;20453;-69
2022/10/13 06:04:37;;;;;;;24.43;16.93;;;11.40;99.90;;;;;;5017403;28;21208;-69
2022/10/13 06:07:04;;;;;;;19.33;17.23;;;11.50;99.90;;;;;;5019020;28;20456;-70
2022/10/13 06:09:34;;;;;;;23.20;17.70;;;11.40;99.90;;;;;;5021443;28;20603;-68
2022/10/13 06:12:01;;;;;;;23.20;16.10;;;11.50;99.90;;;;;;5018927;28;20496;-67
2022/10/13 06:14:29;;;;;;;19.57;17.20;;;11.50;99.90;;;;;;5019333;28;20483;-69
2022/10/13 06:16:58;;;;;;;22.17;16.83;;;11.50;99.90;;;;;;5016139;28;20488;-68
2022/10/13 06:19:24;;;;;;;19.53;17.50;;;11.50;99.90;;;;;;5019242;28;20457;-69
2022/10/13 06:21:51;;;;;;;19.70;16.63;;;11.50;99.90;;;;;;5017407;28;20674;-70
2022/10/13 06:24:19;;;;;;;19.03;17.10;;;11.50;99.90;;;;;;5017340;28;20469;-70
2022/10/13 06:26:45;;;;;;;18.73;16.77;;;11.50;99.90;;;;;;5007775;28;20987;-69
2022/10/13 06:29:12;;;;;;;19.00;17.10;;;11.50;99.90;;;;;;5003395;28;20818;-68
2022/10/13 06:31:39;;;;;;;25.17;17.93;;;11.60;99.90;;;;;;5003179;28;20496;-68
2022/10/13 06:34:08;;;;;;;20.03;17.33;;;11.60;99.90;;;;;;4999806;28;20981;-70
2022/10/13 06:36:35;;;;;;;19.33;17.43;;;11.80;99.90;;;;;;4996958;28;20493;-68
2022/10/13 06:39:02;;;;;;;24.83;18.87;;;11.90;99.90;;;;;;4999428;28;20461;-68
2022/10/13 06:41:29;;;;;;;22.83;17.73;;;11.90;99.90;;;;;;4997818;28;21040;-69
2022/10/13 06:43:56;;;;;;;23.03;17.83;;;11.90;99.90;;;;;;4997864;28;20994;-68
2022/10/13 06:46:23;;;;;;;20.50;17.70;;;12.00;99.90;;;;;;4997094;28;20472;-70
2022/10/13 06:48:50;;;;;;;23.17;17.73;;;12.10;99.90;;;;;;5000862;28;20474;-69
2022/10/13 06:51:19;;;;;;;23.80;16.73;;;12.20;99.90;;;;;;4998253;28;20950;-70
2022/10/13 06:53:45;;;;;;;22.37;16.87;;;12.20;99.90;;;;;;4993458;28;20473;-70
2022/10/13 06:56:13;;;;;;;20.17;17.97;;;12.30;99.90;;;;;;4995704;28;21700;-68
2022/10/13 06:58:39;;;;;;;25.40;19.13;;;12.40;99.90;;;;;;4992214;28;20540;-68
2022/10/13 07:01:08;;;;;;;24.00;20.20;;;12.50;99.90;;;;;;4997048;28;20458;-70
2022/10/13 07:03:34;;;;;;;26.20;18.47;;;12.60;99.90;;;;;;4998297;28;20565;-68
2022/10/13 07:06:02;;;;;;;28.20;19.90;;;12.60;99.90;;;;;;4998416;28;20462;-68
2022/10/13 07:08:30;;;;;;;22.43;19.83;;;12.60;99.90;;;;;;4999626;28;20824;-68
2022/10/13 07:10:58;;;;;;;21.10;18.40;;;12.60;99.90;;;;;;5000751;28;20466;-70
2022/10/13 07:13:25;;;;;;;32.03;20.90;;;12.60;99.90;;;;;;5000956;28;20565;-70
2022/10/13 07:15:52;;;;;;;22.70;18.30;;;12.70;99.90;;;;;;4998635;28;20529;-68
2022/10/13 07:18:19;;;;;;;26.90;20.00;;;12.80;99.90;;;;;;4999436;28;20454;-69
2022/10/13 07:20:46;;;;;;;26.43;20.60;;;12.80;99.90;;;;;;5000597;28;20513;-69
2022/10/13 07:23:13;;;;;;;24.60;18.43;;;12.90;99.90;;;;;;5000044;28;20880;-68
2022/10/13 07:25:41;;;;;;;24.57;20.13;;;13.10;99.90;;;;;;4998720;28;20474;-70
2022/10/13 07:28:08;;;;;;;25.20;19.57;;;13.20;99.90;;;;;;5009380;28;20495;-68
2022/10/13 07:30:35;;;;;;;23.53;21.00;;;13.30;99.90;;;;;;5019883;28;20461;-68
2022/10/13 07:33:02;;;;;;;23.47;21.20;;;13.40;99.90;;;;;;5019593;28;20460;-68
2022/10/13 07:35:29;;;;;;;23.33;21.07;;;13.50;99.90;;;;;;5016338;28;20526;-68
2022/10/13 07:37:56;;;;;;;25.83;23.13;;;13.70;99.90;;;;;;5018290;28;20464;-68
2022/10/13 07:40:25;;;;;;;23.57;21.37;;;13.80;99.90;;;;;;5018871;28;20463;-68
2022/10/13 07:42:55;;;;;;;24.50;22.13;;;13.80;99.90;;;;;;5014116;28;20477;-70
2022/10/13 07:45:23;;;;;;;23.77;21.30;;;13.90;99.90;;;;;;5021305;28;20464;-69
2022/10/13 07:47:50;;;;;;;25.07;20.60;;;14.00;99.90;;;;;;5020234;28;20469;-69
2022/10/13 07:50:17;;;;;;;29.40;20.73;;;14.20;99.90;;;;;;5021538;28;20464;-69
2022/10/13 07:52:44;;;;;;;22.47;20.27;;;14.20;99.90;;;;;;5019204;28;20466;-69
2022/10/13 07:55:12;;;;;;;32.60;20.30;;;14.40;99.90;;;;;;5023654;28;20950;-70
2022/10/13 07:57:39;;;;;;;22.90;20.60;;;14.50;99.90;;;;;;5020444;28;20543;-69
2022/10/13 08:00:09;;;;;;;21.63;19.53;;;14.60;99.90;;;;;;5024217;28;20457;-69
2022/10/13 08:02:36;;;;;;;21.10;19.40;;;14.70;99.90;;;;;;5020455;28;20472;-69
2022/10/13 08:05:03;;;;;;;27.97;20.17;;;14.70;99.90;;;;;;5020228;28;20466;-70
2022/10/13 08:07:30;;;;;;;22.13;19.37;;;14.80;99.90;;;;;;5022450;28;20530;-69
2022/10/13 08:09:57;;;;;;;22.23;19.90;;;14.80;99.90;;;;;;5023228;28;20465;-68
2022/10/13 08:12:23;;;;;;;21.63;19.30;;;14.80;99.90;;;;;;5016651;28;20469;-71
2022/10/13 08:14:51;;;;;;;20.50;18.80;;;14.80;99.90;;;;;;5016175;28;20964;-71
2022/10/13 08:17:19;;;;;;;21.63;19.80;;;14.80;99.90;;;;;;5020977;28;20872;-69
2022/10/13 08:19:45;;;;;;;26.73;22.47;;;14.80;99.90;;;;;;5020461;28;20522;-69
2022/10/13 08:22:13;;;;;;;21.90;19.77;;;14.90;99.90;;;;;;5020402;28;20535;-70
2022/10/13 08:24:39;;;;;;;21.73;19.83;;;15.00;99.90;;;;;;5022471;28;20508;-69
2022/10/13 08:27:09;;;;;;;29.87;21.63;;;15.10;99.90;;;;;;5021751;28;20465;-69
2022/10/13 08:29:36;;;;;;;21.37;19.40;;;15.20;99.90;;;;;;5020675;28;20481;-69
2022/10/13 08:32:03;;;;;;;23.37;20.07;;;15.30;99.90;;;;;;5019636;28;20905;-69
2022/10/13 08:34:32;;;;;;;21.23;19.17;;;15.40;99.90;;;;;;5024423;28;20464;-69
2022/10/13 08:36:59;;;;;;;21.43;19.63;;;15.50;99.90;;;;;;5021127;28;20526;-69
2022/10/13 08:39:26;;;;;;;22.60;20.30;;;15.60;99.90;;;;;;5016944;28;20579;-69
2022/10/13 08:41:55;;;;;;;27.57;20.80;;;15.70;99.90;;;;;;5022089;28;20464;-71
2022/10/13 08:44:30;;;;;;;21.10;19.30;;;15.80;99.90;;;;;;5021597;28;20586;-69
2022/10/13 08:46:59;;;;;;;22.33;20.03;;;16.10;99.90;;;;;;5017919;28;20471;-69
2022/10/13 08:49:27;;;;;;;23.60;21.60;;;16.20;99.90;;;;;;5020301;28;20466;-71
2022/10/13 08:51:57;;;;;;;26.30;21.03;;;16.30;99.90;;;;;;5022597;28;20460;-69
2022/10/13 08:54:26;;;;;;;27.33;21.83;;;16.30;99.90;;;;;;5023507;28;20867;-69
2022/10/13 08:56:53;;;;;;;22.40;20.27;;;16.40;99.90;;;;;;5025039;28;20503;-70
2022/10/13 08:59:20;;;;;;;32.00;20.63;;;16.70;99.90;;;;;;5019675;28;20468;-70
2022/10/13 09:01:52;;;;;;;29.20;20.90;;;17.00;99.90;;;;;;5018310;28;20462;-69
2022/10/13 09:04:28;;;;;;;22.43;20.53;;;17.30;99.90;;;;;;5017241;28;20469;-69
2022/10/13 09:07:01;;;;;;;24.67;22.03;;;17.50;99.90;;;;;;5019249;28;20587;-69
2022/10/13 09:09:28;;;;;;;22.43;20.20;;;17.90;99.90;;;;;;5017226;28;20457;-69
2022/10/13 09:11:55;;;;;;;21.07;18.80;;;18.10;99.90;;;;;;5016486;28;20636;-68
2022/10/13 09:14:24;;;;;;;21.70;19.70;;;18.40;99.90;;;;;;5017167;28;20473;-69
2022/10/13 09:16:52;;;;;;;20.80;19.10;;;18.50;99.90;;;;;;5016792;28;21087;-69
2022/10/13 09:19:26;;;;;;;21.20;19.23;;;18.60;99.90;;;;;;5018221;28;20458;-70
2022/10/13 09:21:54;;;;;;;20.60;19.00;;;18.60;99.90;;;;;;5019922;28;20777;-69
2022/10/13 09:24:24;;;;;;;21.50;19.80;;;18.60;99.90;;;;;;5016298;28;20549;-69
2022/10/13 09:27:01;;;;;;;21.27;19.17;;;18.60;99.90;;;;;;5019114;28;20474;-71
2022/10/13 09:29:28;;;;;;;21.90;19.90;;;18.60;99.90;;;;;;5014350;28;20576;-69
2022/10/13 09:32:12;;;;;;;21.73;19.63;;;18.70;99.90;;;;;;5017664;28;20476;-70
2022/10/13 09:34:39;;;;;;;22.13;20.03;;;18.50;99.90;;;;;;5021513;28;20551;-69
2022/10/13 09:37:19;;;;;;;21.77;19.00;;;18.50;99.90;;;;;;5018381;28;20481;-70
2022/10/13 09:40:00;;;;;;;20.83;18.70;;;18.30;99.90;;;;;;5018326;28;20578;-72
2022/10/13 09:42:28;;;;;;;20.43;18.47;;;18.40;99.90;;;;;;5019347;28;20468;-70
2022/10/13 09:44:58;;;;;;;22.33;20.10;;;18.20;99.90;;;;;;5018646;28;20574;-69
2022/10/13 09:47:26;;;;;;;20.33;18.40;;;18.10;99.90;;;;;;5018951;28;20476;-69
2022/10/13 09:50:02;;;;;;;20.87;19.20;;;18.10;99.90;;;;;;5017831;28;20462;-69
2022/10/13 09:52:28;;;;;;;21.50;18.57;;;18.00;99.90;;;;;;5020026;28;20464;-69
2022/10/13 09:54:59;;;;;;;19.43;17.83;;;17.80;99.90;;;;;;5018247;28;20472;-69
2022/10/13 09:57:35;;;;;;;19.97;18.43;;;17.80;99.90;;;;;;5008106;28;20584;-68
2022/10/13 10:00:12;;;;;;;24.60;18.33;;;17.70;99.90;;;;;;5015052;28;20479;-69
2022/10/13 10:02:49;;;;;;;20.57;18.53;;;17.70;99.90;;;;;;5008447;28;20477;-69
2022/10/13 10:05:24;;;;;;;19.87;18.13;;;17.70;99.90;;;;;;5009895;28;20462;-69
2022/10/13 10:07:51;;;;;;;19.37;17.80;;;17.70;99.90;;;;;;5013562;28;20476;-69
2022/10/13 10:10:32;;;;;;;19.50;17.87;;;17.80;99.90;;;;;;5019563;28;20544;-69
2022/10/13 10:13:00;;;;;;;19.20;17.70;;;18.20;99.90;;;;;;5016886;28;20834;-69
2022/10/13 10:15:36;;;;;;;20.47;17.97;;;18.40;99.90;;;;;;5012944;28;20946;-69
2022/10/13 10:18:08;;;;;;;19.43;17.77;;;18.60;99.90;;;;;;5015671;28;21074;-70
2022/10/13 10:20:51;;;;;;;19.27;17.87;;;18.90;99.90;;;;;;5018763;28;20489;-71
2022/10/13 10:23:25;;;;;;;18.80;17.40;;;18.90;99.90;;;;;;5018813;28;21006;-72
2022/10/13 10:25:59;;;;;;;19.47;17.70;;;18.90;99.90;;;;;;5016487;28;20468;-69
2022/10/13 10:28:50;;;;;;;18.93;17.27;;;19.00;99.90;;;;;;5113885;27;20844;-69
2022/10/13 10:31:32;;;;;;;18.47;16.80;;;19.00;99.90;;;;;;5102171;28;20459;-70
2022/10/13 10:34:15;;;;;;;22.97;17.77;;;19.00;99.90;;;;;;5095961;28;20460;-69
2022/10/13 10:36:53;;;;;;;18.60;16.90;;;18.80;99.90;;;;;;5101915;28;20467;-72
2022/10/13 10:39:30;;;;;;;18.90;17.60;;;18.70;99.90;;;;;;5100709;28;20969;-69
2022/10/13 10:42:03;;;;;;;18.60;17.27;;;18.90;99.90;;;;;;5103826;28;20823;-69
2022/10/13 10:44:35;;;;;;;19.20;17.50;;;18.90;99.90;;;;;;5099544;28;20465;-69
2022/10/13 10:47:04;;;;;;;19.93;18.23;;;18.80;99.90;;;;;;5102746;28;20601;-68
2022/10/13 10:49:33;;;;;;;18.30;16.60;;;18.90;99.90;;;;;;5098024;28;20452;-71
2022/10/13 10:52:03;;;;;;;20.97;19.27;;;18.90;99.90;;;;;;5102848;28;20847;-69
2022/10/13 10:54:41;;;;;;;21.40;19.20;;;18.80;99.90;;;;;;5105453;28;20457;-71
2022/10/13 10:57:13;;;;;;;20.40;18.37;;;18.50;99.90;;;;;;5100726;28;20460;-68
2022/10/13 10:59:51;;;;;;;20.10;18.23;;;18.20;99.90;;;;;;5103301;28;20469;-72
2022/10/13 11:02:38;;;;;;;21.87;19.67;;;18.00;99.90;;;;;;5100243;28;20495;-69
2022/10/13 11:05:05;;;;;;;20.60;18.80;;;17.70;99.90;;;;;;5097199;28;21155;-69
2022/10/13 11:07:59;;;;;;;21.27;19.40;;;17.50;99.90;;;;;;5101407;28;20484;-69
2022/10/13 11:10:27;;;;;;;22.63;18.30;;;17.20;99.90;;;;;;5057407;28;20464;-69
2022/10/13 11:13:19;;;;;;;23.83;21.63;;;17.30;99.90;;;;;;5100696;28;20560;-68
2022/10/13 11:15:48;;;;;;;26.63;24.10;;;17.20;99.90;;;;;;5101966;28;20552;-68
2022/10/13 11:18:52;;;;;;;28.70;25.73;;;16.70;99.90;;;;;;5099896;28;20461;-69
2022/10/13 11:21:19;;;;;;;30.13;27.33;;;16.50;99.90;;;;;;5093290;28;20480;-67
2022/10/13 11:23:48;;;;;;;37.60;28.93;;;16.30;99.90;;;;;;5098451;28;20464;-67
2022/10/13 11:26:41;;;;;;;32.03;28.90;;;15.90;99.90;;;;;;5098174;28;20471;-67
2022/10/13 11:29:17;;;;;;;31.70;27.70;;;15.90;99.90;;;;;;5096153;28;20576;-68
2022/10/13 11:31:54;;;;;;;31.20;28.03;;;15.80;99.90;;;;;;5095486;28;20876;-70
2022/10/13 11:34:31;;;;;;;31.43;28.33;;;15.70;99.90;;;;;;5103063;28;20463;-70
2022/10/13 11:37:00;;;;;;;31.17;27.87;;;15.50;99.90;;;;;;5098203;28;20465;-69
2022/10/13 11:39:58;;;;;;;29.30;26.50;;;15.50;99.90;;;;;;5085569;28;20816;-68
2022/10/13 11:42:54;;;;;;;34.80;27.00;;;15.60;99.90;;;;;;5085563;28;20477;-68
2022/10/13 11:45:38;;;;;;;28.50;26.10;;;15.60;99.90;;;;;;5086091;28;20465;-67
2022/10/13 11:48:42;;;;;;;27.67;25.23;;;15.70;99.90;;;;;;5089789;28;20497;-68
2022/10/13 11:51:22;;;;;;;26.57;24.17;;;15.70;99.90;;;;;;5085307;28;20770;-70
2022/10/13 11:53:56;;;;;;;27.07;24.50;;;15.80;99.90;;;;;;5084412;28;20470;-67
2022/10/13 11:56:33;;;;;;;26.20;23.80;;;15.80;99.90;;;;;;5087219;28;20464;-68
2022/10/13 11:59:00;;;;;;;27.50;25.10;;;15.90;99.90;;;;;;5086983;28;20926;-69
2022/10/13 12:01:28;;;;;;;29.53;26.60;;;16.00;99.90;;;;;;5084474;28;20870;-68
2022/10/13 12:03:56;;;;;;;27.27;25.17;;;16.00;99.90;;;;;;5078611;28;20458;-70
2022/10/13 12:06:33;;;;;;;29.40;25.90;;;16.10;99.90;;;;;;5077451;28;20739;-69
2022/10/13 12:09:07;;;;;;;28.73;25.80;;;16.20;99.90;;;;;;5090057;28;20456;-68
2022/10/13 12:11:36;;;;;;;28.57;25.60;;;16.30;99.90;;;;;;5081675;28;20456;-68
2022/10/13 12:14:06;;;;;;;29.07;26.37;;;16.40;99.90;;;;;;5079969;28;20451;-71
2022/10/13 12:16:34;;;;;;;29.30;26.17;;;16.60;99.90;;;;;;5082305;28;20464;-68
2022/10/13 12:19:18;;;;;;;27.77;25.10;;;17.00;99.90;;;;;;5077213;28;20495;-69
2022/10/13 12:21:50;;;;;;;25.23;22.83;;;17.20;99.90;;;;;;5077747;28;20485;-69
2022/10/13 12:24:17;;;;;;;25.63;22.97;;;17.60;99.90;;;;;;5076344;28;20542;-68
2022/10/13 12:26:44;;;;;;;23.67;21.53;;;17.80;99.90;;;;;;5078340;28;20486;-70
2022/10/13 12:29:13;;;;;;;24.50;21.90;;;17.80;99.90;;;;;;5078358;28;20461;-67
2022/10/13 12:31:43;;;;;;;24.07;22.10;;;17.80;99.90;;;;;;5088830;28;20462;-68
2022/10/13 12:34:22;;;;;;;25.17;22.87;;;17.70;99.90;;;;;;5085925;28;20849;-68
2022/10/13 12:36:58;;;;;;;24.57;22.20;;;17.80;99.90;;;;;;5081627;28;20959;-69
2022/10/13 12:39:26;;;;;;;25.37;22.70;;;17.90;99.90;;;;;;5084855;28;20986;-67
2022/10/13 12:41:54;;;;;;;23.20;21.50;;;17.90;99.90;;;;;;5076913;28;20457;-68
2022/10/13 12:44:24;;;;;;;23.97;21.60;;;18.00;99.90;;;;;;5083680;28;20466;-68